sensor_id;sensor_type;location;lat;lon;timestamp;P1;durP1;ratioP1;P2;durP2;ratioP2
9789;SDS011;4934;50.852;8.098;2023-01-08T00:01:21;4.80;;;3.03;;
9789;SDS011;4934;50.852;8.098;2023-01-08T00:03:46;4.28;;;2.63;;
9789;SDS011;4934;50.852;8.098;2023-01-08T00:06:16;5.50;;;2.90;;
9789;SDS011;4934;50.852;8.098;2023-01-08T00:08:45;4.68;;;1.98;;
9789;SDS011;4934;50.852;8.098;2023-01-08T00:11:11;3.85;;;2.30;;
9789;SDS011;4934;50.852;8.098;2023-01-08T00:13:37;4.15;;;2.20;;
9789;SDS011;4934;50.852;8.098;2023-01-08T00:16:07;6.38;;;2.45;;
9789;SDS011;4934;50.852;8.098;2023-01-08T00:18:34;3.72;;;2.22;;
9789;SDS011;4934;50.852;8.098;2023-01-08T00:21:00;3.60;;;1.92;;
9789;SDS011;4934;50.852;8.098;2023-01-08T00:23:26;3.53;;;2.13;;
9789;SDS011;4934;50.852;8.098;2023-01-08T00:25:52;3.97;;;1.80;;
9789;SDS011;4934;50.852;8.098;2023-01-08T00:28:17;3.25;;;1.90;;
9789;SDS011;4934;50.852;8.098;2023-01-08T00:30:45;3.25;;;2.20;;
9789;SDS011;4934;50.852;8.098;2023-01-08T00:33:11;3.42;;;1.90;;
9789;SDS011;4934;50.852;8.098;2023-01-08T00:35:36;3.25;;;1.75;;
9789;SDS011;4934;50.852;8.098;2023-01-08T00:38:03;3.40;;;1.88;;
9789;SDS011;4934;50.852;8.098;2023-01-08T00:40:28;3.72;;;2.20;;
9789;SDS011;4934;50.852;8.098;2023-01-08T00:42:54;4.80;;;2.10;;
9789;SDS011;4934;50.852;8.098;2023-01-08T00:45:19;2.17;;;1.48;;
9789;SDS011;4934;50.852;8.098;2023-01-08T00:47:45;2.58;;;1.48;;
9789;SDS011;4934;50.852;8.098;2023-01-08T00:50:10;5.13;;;2.22;;
9789;SDS011;4934;50.852;8.098;2023-01-08T00:52:36;4.07;;;1.73;;
9789;SDS011;4934;50.852;8.098;2023-01-08T00:55:02;2.15;;;1.65;;
9789;SDS011;4934;50.852;8.098;2023-01-08T00:57:32;3.20;;;1.80;;
9789;SDS011;4934;50.852;8.098;2023-01-08T00:59:59;5.47;;;2.20;;
9789;SDS011;4934;50.852;8.098;2023-01-08T01:02:24;4.60;;;1.83;;
9789;SDS011;4934;50.852;8.098;2023-01-08T01:04:51;4.47;;;1.60;;
9789;SDS011;4934;50.852;8.098;2023-01-08T01:07:17;3.65;;;2.03;;
9789;SDS011;4934;50.852;8.098;2023-01-08T01:09:43;4.43;;;1.83;;
9789;SDS011;4934;50.852;8.098;2023-01-08T01:12:08;4.53;;;2.35;;
9789;SDS011;4934;50.852;8.098;2023-01-08T01:14:35;5.53;;;2.38;;
9789;SDS011;4934;50.852;8.098;2023-01-08T01:17:01;4.00;;;2.30;;
9789;SDS011;4934;50.852;8.098;2023-01-08T01:19:27;3.95;;;2.28;;
9789;SDS011;4934;50.852;8.098;2023-01-08T01:21:53;4.43;;;2.63;;
9789;SDS011;4934;50.852;8.098;2023-01-08T01:24:18;5.95;;;3.00;;
9789;SDS011;4934;50.852;8.098;2023-01-08T01:26:45;3.92;;;2.42;;
9789;SDS011;4934;50.852;8.098;2023-01-08T01:29:11;7.05;;;2.55;;
9789;SDS011;4934;50.852;8.098;2023-01-08T01:31:37;3.58;;;2.28;;
9789;SDS011;4934;50.852;8.098;2023-01-08T01:34:02;3.67;;;2.55;;
9789;SDS011;4934;50.852;8.098;2023-01-08T01:36:28;4.38;;;2.70;;
9789;SDS011;4934;50.852;8.098;2023-01-08T01:38:54;3.72;;;2.58;;
9789;SDS011;4934;50.852;8.098;2023-01-08T01:41:31;6.43;;;2.60;;
9789;SDS011;4934;50.852;8.098;2023-01-08T01:44:33;8.40;;;3.20;;
9789;SDS011;4934;50.852;8.098;2023-01-08T01:47:12;4.10;;;2.78;;
9789;SDS011;4934;50.852;8.098;2023-01-08T01:49:50;7.75;;;3.15;;
9789;SDS011;4934;50.852;8.098;2023-01-08T01:52:28;5.68;;;3.22;;
9789;SDS011;4934;50.852;8.098;2023-01-08T01:57:23;5.88;;;3.42;;
9789;SDS011;4934;50.852;8.098;2023-01-08T01:59:50;5.72;;;3.42;;
9789;SDS011;4934;50.852;8.098;2023-01-08T02:02:18;5.10;;;3.17;;
9789;SDS011;4934;50.852;8.098;2023-01-08T02:04:43;8.05;;;3.10;;
9789;SDS011;4934;50.852;8.098;2023-01-08T02:07:12;8.48;;;3.50;;
9789;SDS011;4934;50.852;8.098;2023-01-08T02:09:48;5.10;;;2.92;;
9789;SDS011;4934;50.852;8.098;2023-01-08T02:12:38;6.00;;;3.25;;
9789;SDS011;4934;50.852;8.098;2023-01-08T02:15:10;7.00;;;3.08;;
9789;SDS011;4934;50.852;8.098;2023-01-08T02:18:01;6.72;;;3.55;;
9789;SDS011;4934;50.852;8.098;2023-01-08T02:21:03;9.57;;;3.53;;
9789;SDS011;4934;50.852;8.098;2023-01-08T02:23:48;7.32;;;2.97;;
9789;SDS011;4934;50.852;8.098;2023-01-08T02:26:30;5.22;;;3.22;;
9789;SDS011;4934;50.852;8.098;2023-01-08T02:29:30;4.85;;;2.72;;
9789;SDS011;4934;50.852;8.098;2023-01-08T02:31:50;5.65;;;3.60;;
9789;SDS011;4934;50.852;8.098;2023-01-08T02:34:16;8.68;;;3.47;;
9789;SDS011;4934;50.852;8.098;2023-01-08T02:36:51;6.30;;;3.67;;
9789;SDS011;4934;50.852;8.098;2023-01-08T02:45:20;14.02;;;3.88;;
9789;SDS011;4934;50.852;8.098;2023-01-08T02:48:28;7.00;;;3.08;;
9789;SDS011;4934;50.852;8.098;2023-01-08T02:53:26;6.40;;;3.13;;
9789;SDS011;4934;50.852;8.098;2023-01-08T02:55:59;6.70;;;3.30;;
9789;SDS011;4934;50.852;8.098;2023-01-08T02:58:28;8.60;;;3.15;;
9789;SDS011;4934;50.852;8.098;2023-01-08T03:00:57;5.63;;;2.90;;
9789;SDS011;4934;50.852;8.098;2023-01-08T03:03:26;3.78;;;2.63;;
9789;SDS011;4934;50.852;8.098;2023-01-08T03:05:57;5.63;;;3.03;;
9789;SDS011;4934;50.852;8.098;2023-01-08T03:08:43;5.30;;;2.75;;
9789;SDS011;4934;50.852;8.098;2023-01-08T03:11:12;6.40;;;2.85;;
9789;SDS011;4934;50.852;8.098;2023-01-08T03:16:35;7.07;;;2.85;;
9789;SDS011;4934;50.852;8.098;2023-01-08T03:19:08;5.18;;;2.65;;
9789;SDS011;4934;50.852;8.098;2023-01-08T03:21:40;3.22;;;2.30;;
9789;SDS011;4934;50.852;8.098;2023-01-08T03:24:09;4.82;;;2.40;;
9789;SDS011;4934;50.852;8.098;2023-01-08T03:26:38;7.70;;;2.78;;
9789;SDS011;4934;50.852;8.098;2023-01-08T03:29:07;4.45;;;2.70;;
9789;SDS011;4934;50.852;8.098;2023-01-08T03:31:36;3.30;;;2.45;;
9789;SDS011;4934;50.852;8.098;2023-01-08T03:34:04;6.93;;;2.55;;
9789;SDS011;4934;50.852;8.098;2023-01-08T03:36:30;4.35;;;2.58;;
9789;SDS011;4934;50.852;8.098;2023-01-08T03:39:04;5.07;;;2.70;;
9789;SDS011;4934;50.852;8.098;2023-01-08T03:41:36;3.60;;;2.50;;
9789;SDS011;4934;50.852;8.098;2023-01-08T03:44:02;2.70;;;2.10;;
9789;SDS011;4934;50.852;8.098;2023-01-08T03:46:30;3.67;;;2.50;;
9789;SDS011;4934;50.852;8.098;2023-01-08T03:48:59;5.43;;;2.40;;
9789;SDS011;4934;50.852;8.098;2023-01-08T03:51:26;5.65;;;2.38;;
9789;SDS011;4934;50.852;8.098;2023-01-08T03:53:52;3.63;;;2.17;;
9789;SDS011;4934;50.852;8.098;2023-01-08T03:56:22;5.10;;;2.63;;
9789;SDS011;4934;50.852;8.098;2023-01-08T03:58:48;3.80;;;2.13;;
9789;SDS011;4934;50.852;8.098;2023-01-08T04:01:13;4.68;;;2.03;;
9789;SDS011;4934;50.852;8.098;2023-01-08T04:03:39;3.08;;;2.15;;
9789;SDS011;4934;50.852;8.098;2023-01-08T04:06:04;3.80;;;1.85;;
9789;SDS011;4934;50.852;8.098;2023-01-08T04:08:30;4.38;;;2.08;;
9789;SDS011;4934;50.852;8.098;2023-01-08T04:10:57;4.05;;;2.10;;
9789;SDS011;4934;50.852;8.098;2023-01-08T04:13:22;3.95;;;2.47;;
9789;SDS011;4934;50.852;8.098;2023-01-08T04:15:48;3.17;;;2.28;;
9789;SDS011;4934;50.852;8.098;2023-01-08T04:18:15;3.55;;;2.13;;
9789;SDS011;4934;50.852;8.098;2023-01-08T04:20:43;2.60;;;1.90;;
9789;SDS011;4934;50.852;8.098;2023-01-08T04:23:10;5.82;;;1.80;;
9789;SDS011;4934;50.852;8.098;2023-01-08T04:25:36;2.60;;;1.70;;
9789;SDS011;4934;50.852;8.098;2023-01-08T04:28:02;3.40;;;2.05;;
9789;SDS011;4934;50.852;8.098;2023-01-08T04:30:28;3.17;;;2.03;;
9789;SDS011;4934;50.852;8.098;2023-01-08T04:32:54;5.68;;;1.80;;
9789;SDS011;4934;50.852;8.098;2023-01-08T04:35:20;2.90;;;1.45;;
9789;SDS011;4934;50.852;8.098;2023-01-08T04:37:46;2.53;;;1.70;;
9789;SDS011;4934;50.852;8.098;2023-01-08T04:40:11;4.00;;;2.03;;
9789;SDS011;4934;50.852;8.098;2023-01-08T04:42:37;2.55;;;1.55;;
9789;SDS011;4934;50.852;8.098;2023-01-08T04:45:03;3.22;;;1.92;;
9789;SDS011;4934;50.852;8.098;2023-01-08T04:47:29;4.03;;;1.75;;
9789;SDS011;4934;50.852;8.098;2023-01-08T04:49:55;8.32;;;2.17;;
9789;SDS011;4934;50.852;8.098;2023-01-08T04:52:20;4.47;;;1.98;;
9789;SDS011;4934;50.852;8.098;2023-01-08T04:54:46;2.30;;;1.60;;
9789;SDS011;4934;50.852;8.098;2023-01-08T04:57:11;3.40;;;1.40;;
9789;SDS011;4934;50.852;8.098;2023-01-08T04:59:37;3.10;;;1.42;;
9789;SDS011;4934;50.852;8.098;2023-01-08T05:02:03;2.50;;;1.10;;
9789;SDS011;4934;50.852;8.098;2023-01-08T05:04:28;2.55;;;1.05;;
9789;SDS011;4934;50.852;8.098;2023-01-08T05:06:54;2.97;;;1.20;;
9789;SDS011;4934;50.852;8.098;2023-01-08T05:09:19;3.28;;;1.00;;
9789;SDS011;4934;50.852;8.098;2023-01-08T05:11:45;1.65;;;1.30;;
9789;SDS011;4934;50.852;8.098;2023-01-08T05:14:11;1.23;;;1.02;;
9789;SDS011;4934;50.852;8.098;2023-01-08T05:16:36;2.22;;;1.23;;
9789;SDS011;4934;50.852;8.098;2023-01-08T05:19:02;1.08;;;0.90;;
9789;SDS011;4934;50.852;8.098;2023-01-08T05:21:27;1.58;;;1.10;;
9789;SDS011;4934;50.852;8.098;2023-01-08T05:23:53;2.28;;;1.00;;
9789;SDS011;4934;50.852;8.098;2023-01-08T05:26:18;1.60;;;1.05;;
9789;SDS011;4934;50.852;8.098;2023-01-08T05:28:44;1.80;;;1.00;;
9789;SDS011;4934;50.852;8.098;2023-01-08T05:31:10;2.72;;;1.10;;
9789;SDS011;4934;50.852;8.098;2023-01-08T05:33:36;1.70;;;1.10;;
9789;SDS011;4934;50.852;8.098;2023-01-08T05:36:06;1.52;;;0.93;;
9789;SDS011;4934;50.852;8.098;2023-01-08T05:38:33;2.58;;;0.90;;
9789;SDS011;4934;50.852;8.098;2023-01-08T05:40:59;2.22;;;1.00;;
9789;SDS011;4934;50.852;8.098;2023-01-08T05:43:25;0.85;;;0.80;;
9789;SDS011;4934;50.852;8.098;2023-01-08T05:45:51;1.80;;;0.85;;
9789;SDS011;4934;50.852;8.098;2023-01-08T05:48:16;1.42;;;0.90;;
9789;SDS011;4934;50.852;8.098;2023-01-08T05:50:42;1.00;;;0.73;;
9789;SDS011;4934;50.852;8.098;2023-01-08T05:53:08;1.75;;;0.90;;
9789;SDS011;4934;50.852;8.098;2023-01-08T05:55:34;1.23;;;0.80;;
9789;SDS011;4934;50.852;8.098;2023-01-08T05:58:01;2.72;;;0.93;;
9789;SDS011;4934;50.852;8.098;2023-01-08T06:00:27;0.65;;;0.60;;
9789;SDS011;4934;50.852;8.098;2023-01-08T06:02:53;1.25;;;0.80;;
9789;SDS011;4934;50.852;8.098;2023-01-08T06:05:18;1.58;;;0.80;;
9789;SDS011;4934;50.852;8.098;2023-01-08T06:07:44;1.38;;;0.70;;
9789;SDS011;4934;50.852;8.098;2023-01-08T06:10:09;0.70;;;0.60;;
9789;SDS011;4934;50.852;8.098;2023-01-08T06:12:36;1.05;;;0.73;;
9789;SDS011;4934;50.852;8.098;2023-01-08T06:15:03;1.45;;;0.88;;
9789;SDS011;4934;50.852;8.098;2023-01-08T06:17:29;1.13;;;0.70;;
9789;SDS011;4934;50.852;8.098;2023-01-08T06:19:55;1.92;;;1.25;;
9789;SDS011;4934;50.852;8.098;2023-01-08T06:22:21;2.78;;;0.77;;
9789;SDS011;4934;50.852;8.098;2023-01-08T06:24:46;3.85;;;0.70;;
9789;SDS011;4934;50.852;8.098;2023-01-08T06:27:12;1.02;;;0.70;;
9789;SDS011;4934;50.852;8.098;2023-01-08T06:29:37;1.00;;;0.60;;
9789;SDS011;4934;50.852;8.098;2023-01-08T06:32:03;4.72;;;0.80;;
9789;SDS011;4934;50.852;8.098;2023-01-08T06:34:29;1.48;;;0.82;;
9789;SDS011;4934;50.852;8.098;2023-01-08T06:36:55;5.43;;;1.90;;
9789;SDS011;4934;50.852;8.098;2023-01-08T06:39:20;1.52;;;0.93;;
9789;SDS011;4934;50.852;8.098;2023-01-08T06:41:46;1.00;;;0.63;;
9789;SDS011;4934;50.852;8.098;2023-01-08T06:44:11;1.42;;;0.52;;
9789;SDS011;4934;50.852;8.098;2023-01-08T06:46:37;0.90;;;0.70;;
9789;SDS011;4934;50.852;8.098;2023-01-08T06:49:04;1.30;;;0.50;;
9789;SDS011;4934;50.852;8.098;2023-01-08T06:51:31;2.25;;;0.70;;
9789;SDS011;4934;50.852;8.098;2023-01-08T06:53:56;1.75;;;0.60;;
9789;SDS011;4934;50.852;8.098;2023-01-08T06:56:24;1.52;;;1.10;;
9789;SDS011;4934;50.852;8.098;2023-01-08T06:58:50;2.03;;;0.70;;
9789;SDS011;4934;50.852;8.098;2023-01-08T07:01:15;2.05;;;0.90;;
9789;SDS011;4934;50.852;8.098;2023-01-08T07:03:42;2.78;;;0.80;;
9789;SDS011;4934;50.852;8.098;2023-01-08T07:06:15;1.45;;;0.70;;
9789;SDS011;4934;50.852;8.098;2023-01-08T07:08:42;1.00;;;0.70;;
9789;SDS011;4934;50.852;8.098;2023-01-08T07:11:09;1.52;;;1.00;;
9789;SDS011;4934;50.852;8.098;2023-01-08T07:13:35;1.85;;;0.68;;
9789;SDS011;4934;50.852;8.098;2023-01-08T07:16:07;1.58;;;1.00;;
9789;SDS011;4934;50.852;8.098;2023-01-08T07:18:34;1.83;;;1.00;;
9789;SDS011;4934;50.852;8.098;2023-01-08T07:21:03;2.80;;;0.85;;
9789;SDS011;4934;50.852;8.098;2023-01-08T07:23:31;1.88;;;0.98;;
9789;SDS011;4934;50.852;8.098;2023-01-08T07:25:59;1.23;;;0.80;;
9789;SDS011;4934;50.852;8.098;2023-01-08T07:28:30;1.77;;;0.98;;
9789;SDS011;4934;50.852;8.098;2023-01-08T07:30:56;2.53;;;0.77;;
9789;SDS011;4934;50.852;8.098;2023-01-08T07:33:22;2.33;;;1.10;;
9789;SDS011;4934;50.852;8.098;2023-01-08T07:35:52;1.92;;;1.08;;
9789;SDS011;4934;50.852;8.098;2023-01-08T07:38:18;1.70;;;0.90;;
9789;SDS011;4934;50.852;8.098;2023-01-08T07:40:44;1.10;;;0.80;;
9789;SDS011;4934;50.852;8.098;2023-01-08T07:43:09;2.60;;;1.13;;
9789;SDS011;4934;50.852;8.098;2023-01-08T07:45:36;1.55;;;0.90;;
9789;SDS011;4934;50.852;8.098;2023-01-08T07:48:02;1.60;;;0.90;;
9789;SDS011;4934;50.852;8.098;2023-01-08T07:50:28;1.67;;;0.90;;
9789;SDS011;4934;50.852;8.098;2023-01-08T07:52:58;1.35;;;1.00;;
9789;SDS011;4934;50.852;8.098;2023-01-08T07:55:25;2.25;;;1.13;;
9789;SDS011;4934;50.852;8.098;2023-01-08T07:57:52;1.75;;;0.77;;
9789;SDS011;4934;50.852;8.098;2023-01-08T08:00:18;1.25;;;0.93;;
9789;SDS011;4934;50.852;8.098;2023-01-08T08:02:44;1.75;;;0.90;;
9789;SDS011;4934;50.852;8.098;2023-01-08T08:05:09;1.30;;;0.80;;
9789;SDS011;4934;50.852;8.098;2023-01-08T08:07:35;1.67;;;0.90;;
9789;SDS011;4934;50.852;8.098;2023-01-08T08:10:02;1.33;;;1.10;;
9789;SDS011;4934;50.852;8.098;2023-01-08T08:12:28;1.08;;;0.95;;
9789;SDS011;4934;50.852;8.098;2023-01-08T08:14:53;1.30;;;1.17;;
9789;SDS011;4934;50.852;8.098;2023-01-08T08:17:19;1.23;;;1.08;;
9789;SDS011;4934;50.852;8.098;2023-01-08T08:19:45;2.22;;;1.50;;
9789;SDS011;4934;50.852;8.098;2023-01-08T08:22:11;2.80;;;1.92;;
9789;SDS011;4934;50.852;8.098;2023-01-08T08:24:37;3.45;;;1.95;;
9789;SDS011;4934;50.852;8.098;2023-01-08T08:27:03;3.75;;;1.60;;
9789;SDS011;4934;50.852;8.098;2023-01-08T08:29:28;1.88;;;1.20;;
9789;SDS011;4934;50.852;8.098;2023-01-08T08:31:54;2.83;;;1.50;;
9789;SDS011;4934;50.852;8.098;2023-01-08T08:34:19;3.03;;;1.58;;
9789;SDS011;4934;50.852;8.098;2023-01-08T08:36:46;1.55;;;1.10;;
9789;SDS011;4934;50.852;8.098;2023-01-08T08:39:12;3.95;;;1.23;;
9789;SDS011;4934;50.852;8.098;2023-01-08T08:41:38;2.28;;;1.33;;
9789;SDS011;4934;50.852;8.098;2023-01-08T08:44:04;2.67;;;1.50;;
9789;SDS011;4934;50.852;8.098;2023-01-08T08:46:30;1.83;;;1.25;;
9789;SDS011;4934;50.852;8.098;2023-01-08T08:48:55;4.28;;;1.50;;
9789;SDS011;4934;50.852;8.098;2023-01-08T08:51:21;2.30;;;1.55;;
9789;SDS011;4934;50.852;8.098;2023-01-08T08:53:46;2.03;;;1.10;;
9789;SDS011;4934;50.852;8.098;2023-01-08T08:56:12;3.13;;;1.45;;
9789;SDS011;4934;50.852;8.098;2023-01-08T08:58:38;1.92;;;1.08;;
9789;SDS011;4934;50.852;8.098;2023-01-08T09:01:05;3.78;;;1.15;;
9789;SDS011;4934;50.852;8.098;2023-01-08T09:03:33;1.92;;;1.00;;
9789;SDS011;4934;50.852;8.098;2023-01-08T09:05:59;7.70;;;1.55;;
9789;SDS011;4934;50.852;8.098;2023-01-08T09:08:25;1.63;;;1.00;;
9789;SDS011;4934;50.852;8.098;2023-01-08T09:10:50;3.22;;;0.95;;
9789;SDS011;4934;50.852;8.098;2023-01-08T09:13:16;1.98;;;1.08;;
9789;SDS011;4934;50.852;8.098;2023-01-08T09:15:42;1.45;;;0.93;;
9789;SDS011;4934;50.852;8.098;2023-01-08T09:18:08;2.10;;;1.23;;
9789;SDS011;4934;50.852;8.098;2023-01-08T09:20:33;2.65;;;1.20;;
9789;SDS011;4934;50.852;8.098;2023-01-08T09:22:59;2.70;;;0.95;;
9789;SDS011;4934;50.852;8.098;2023-01-08T09:25:27;1.50;;;0.80;;
9789;SDS011;4934;50.852;8.098;2023-01-08T09:27:59;1.27;;;0.77;;
9789;SDS011;4934;50.852;8.098;2023-01-08T09:30:32;3.53;;;1.15;;
9789;SDS011;4934;50.852;8.098;2023-01-08T09:32:58;3.47;;;1.42;;
9789;SDS011;4934;50.852;8.098;2023-01-08T09:35:25;1.50;;;0.90;;
9789;SDS011;4934;50.852;8.098;2023-01-08T09:37:51;4.47;;;1.45;;
9789;SDS011;4934;50.852;8.098;2023-01-08T09:40:18;1.35;;;0.77;;
9789;SDS011;4934;50.852;8.098;2023-01-08T09:42:47;1.45;;;0.95;;
9789;SDS011;4934;50.852;8.098;2023-01-08T09:45:26;2.40;;;1.00;;
9789;SDS011;4934;50.852;8.098;2023-01-08T09:47:53;3.00;;;0.80;;
9789;SDS011;4934;50.852;8.098;2023-01-08T09:50:22;3.10;;;1.30;;
9789;SDS011;4934;50.852;8.098;2023-01-08T09:52:52;2.13;;;1.00;;
9789;SDS011;4934;50.852;8.098;2023-01-08T09:55:18;1.92;;;1.20;;
9789;SDS011;4934;50.852;8.098;2023-01-08T09:57:44;2.63;;;0.98;;
9789;SDS011;4934;50.852;8.098;2023-01-08T10:00:18;3.28;;;0.88;;
9789;SDS011;4934;50.852;8.098;2023-01-08T10:02:49;2.60;;;0.82;;
9789;SDS011;4934;50.852;8.098;2023-01-08T10:05:17;2.50;;;1.05;;
9789;SDS011;4934;50.852;8.098;2023-01-08T10:07:44;6.10;;;1.10;;
9789;SDS011;4934;50.852;8.098;2023-01-08T10:10:20;1.75;;;0.95;;
9789;SDS011;4934;50.852;8.098;2023-01-08T10:12:49;4.57;;;1.02;;
9789;SDS011;4934;50.852;8.098;2023-01-08T10:15:16;1.55;;;0.90;;
9789;SDS011;4934;50.852;8.098;2023-01-08T10:17:54;1.20;;;0.75;;
9789;SDS011;4934;50.852;8.098;2023-01-08T10:20:28;4.82;;;1.02;;
9789;SDS011;4934;50.852;8.098;2023-01-08T10:22:55;3.58;;;0.90;;
9789;SDS011;4934;50.852;8.098;2023-01-08T10:25:32;2.67;;;1.27;;
9789;SDS011;4934;50.852;8.098;2023-01-08T10:27:59;2.10;;;1.15;;
9789;SDS011;4934;50.852;8.098;2023-01-08T10:32:54;2.50;;;1.10;;
9789;SDS011;4934;50.852;8.098;2023-01-08T10:35:23;1.98;;;0.98;;
9789;SDS011;4934;50.852;8.098;2023-01-08T10:37:57;2.38;;;1.05;;
9789;SDS011;4934;50.852;8.098;2023-01-08T10:40:34;1.73;;;1.00;;
9789;SDS011;4934;50.852;8.098;2023-01-08T10:43:10;2.05;;;1.02;;
9789;SDS011;4934;50.852;8.098;2023-01-08T10:45:39;2.78;;;1.10;;
9789;SDS011;4934;50.852;8.098;2023-01-08T10:48:11;2.47;;;0.70;;
9789;SDS011;4934;50.852;8.098;2023-01-08T10:50:41;1.75;;;0.82;;
9789;SDS011;4934;50.852;8.098;2023-01-08T10:53:22;1.00;;;0.90;;
9789;SDS011;4934;50.852;8.098;2023-01-08T10:56:02;2.95;;;0.70;;
9789;SDS011;4934;50.852;8.098;2023-01-08T10:58:29;1.48;;;0.77;;
9789;SDS011;4934;50.852;8.098;2023-01-08T11:01:09;1.77;;;0.68;;
9789;SDS011;4934;50.852;8.098;2023-01-08T11:03:37;0.98;;;0.60;;
9789;SDS011;4934;50.852;8.098;2023-01-08T11:06:18;3.30;;;0.90;;
9789;SDS011;4934;50.852;8.098;2023-01-08T11:08:54;2.53;;;0.88;;
9789;SDS011;4934;50.852;8.098;2023-01-08T11:11:35;1.75;;;0.90;;
9789;SDS011;4934;50.852;8.098;2023-01-08T11:14:02;4.97;;;0.80;;
9789;SDS011;4934;50.852;8.098;2023-01-08T11:16:31;1.85;;;0.88;;
9789;SDS011;4934;50.852;8.098;2023-01-08T11:18:59;1.50;;;0.70;;
9789;SDS011;4934;50.852;8.098;2023-01-08T11:21:29;0.52;;;0.50;;
9789;SDS011;4934;50.852;8.098;2023-01-08T11:26:37;2.33;;;0.55;;
9789;SDS011;4934;50.852;8.098;2023-01-08T11:29:23;1.45;;;0.50;;
9789;SDS011;4934;50.852;8.098;2023-01-08T11:37:34;1.60;;;0.88;;
9789;SDS011;4934;50.852;8.098;2023-01-08T11:40:09;1.75;;;0.88;;
9789;SDS011;4934;50.852;8.098;2023-01-08T12:01:48;3.72;;;0.80;;
9789;SDS011;4934;50.852;8.098;2023-01-08T12:07:00;2.58;;;0.82;;
9789;SDS011;4934;50.852;8.098;2023-01-08T12:09:43;2.38;;;0.90;;
9789;SDS011;4934;50.852;8.098;2023-01-08T12:20:25;13.82;;;4.00;;
9789;SDS011;4934;50.852;8.098;2023-01-08T12:23:12;4.97;;;2.60;;
9789;SDS011;4934;50.852;8.098;2023-01-08T12:33:46;2.55;;;0.90;;
9789;SDS011;4934;50.852;8.098;2023-01-08T12:36:20;11.85;;;3.58;;
9789;SDS011;4934;50.852;8.098;2023-01-08T12:39:39;3.90;;;1.83;;
9789;SDS011;4934;50.852;8.098;2023-01-08T12:41:45;17.95;;;5.32;;
9789;SDS011;4934;50.852;8.098;2023-01-08T12:44:14;4.57;;;2.03;;
9789;SDS011;4934;50.852;8.098;2023-01-08T12:46:47;5.10;;;2.15;;
9789;SDS011;4934;50.852;8.098;2023-01-08T12:49:16;8.52;;;1.48;;
9789;SDS011;4934;50.852;8.098;2023-01-08T12:51:51;6.85;;;2.53;;
9789;SDS011;4934;50.852;8.098;2023-01-08T12:57:01;12.45;;;3.75;;
9789;SDS011;4934;50.852;8.098;2023-01-08T12:59:44;2.10;;;1.13;;
9789;SDS011;4934;50.852;8.098;2023-01-08T13:07:59;1.83;;;1.33;;
9789;SDS011;4934;50.852;8.098;2023-01-08T13:13:02;1.80;;;0.85;;
9789;SDS011;4934;50.852;8.098;2023-01-08T13:15:30;1.63;;;1.00;;
9789;SDS011;4934;50.852;8.098;2023-01-08T13:17:59;2.00;;;0.90;;
9789;SDS011;4934;50.852;8.098;2023-01-08T13:20:31;2.58;;;1.33;;
9789;SDS011;4934;50.852;8.098;2023-01-08T13:23:01;3.58;;;2.72;;
9789;SDS011;4934;50.852;8.098;2023-01-08T13:25:29;1.88;;;1.00;;
9789;SDS011;4934;50.852;8.098;2023-01-08T13:28:00;4.30;;;1.38;;
9789;SDS011;4934;50.852;8.098;2023-01-08T13:30:42;2.15;;;0.70;;
9789;SDS011;4934;50.852;8.098;2023-01-08T13:36:53;1.00;;;0.73;;
9789;SDS011;4934;50.852;8.098;2023-01-08T13:38:45;0.90;;;0.70;;
9789;SDS011;4934;50.852;8.098;2023-01-08T13:41:23;1.02;;;0.60;;
9789;SDS011;4934;50.852;8.098;2023-01-08T13:44:35;1.00;;;0.77;;
9789;SDS011;4934;50.852;8.098;2023-01-08T13:46:51;1.70;;;0.90;;
9789;SDS011;4934;50.852;8.098;2023-01-08T13:49:24;2.70;;;0.73;;
9789;SDS011;4934;50.852;8.098;2023-01-08T13:52:24;3.15;;;1.40;;
9789;SDS011;4934;50.852;8.098;2023-01-08T13:54:56;1.33;;;0.80;;
9789;SDS011;4934;50.852;8.098;2023-01-08T13:57:25;3.50;;;1.33;;
9789;SDS011;4934;50.852;8.098;2023-01-08T14:00:01;1.45;;;1.30;;
9789;SDS011;4934;50.852;8.098;2023-01-08T14:02:41;3.80;;;1.15;;
9789;SDS011;4934;50.852;8.098;2023-01-08T14:05:31;1.15;;;0.98;;
9789;SDS011;4934;50.852;8.098;2023-01-08T14:08:00;1.35;;;0.65;;
9789;SDS011;4934;50.852;8.098;2023-01-08T14:10:27;2.83;;;1.15;;
9789;SDS011;4934;50.852;8.098;2023-01-08T14:12:55;1.85;;;0.60;;
9789;SDS011;4934;50.852;8.098;2023-01-08T14:15:32;0.77;;;0.60;;
9789;SDS011;4934;50.852;8.098;2023-01-08T14:17:59;2.05;;;1.10;;
9789;SDS011;4934;50.852;8.098;2023-01-08T14:20:29;2.67;;;0.80;;
9789;SDS011;4934;50.852;8.098;2023-01-08T14:23:01;1.10;;;0.70;;
9789;SDS011;4934;50.852;8.098;2023-01-08T14:25:32;4.22;;;1.08;;
9789;SDS011;4934;50.852;8.098;2023-01-08T14:28:02;0.80;;;0.70;;
9789;SDS011;4934;50.852;8.098;2023-01-08T14:30:29;2.03;;;0.50;;
9789;SDS011;4934;50.852;8.098;2023-01-08T14:32:56;1.38;;;0.95;;
9789;SDS011;4934;50.852;8.098;2023-01-08T14:35:27;1.98;;;0.80;;
9789;SDS011;4934;50.852;8.098;2023-01-08T14:37:58;2.40;;;0.65;;
9789;SDS011;4934;50.852;8.098;2023-01-08T14:42:55;1.50;;;0.82;;
9789;SDS011;4934;50.852;8.098;2023-01-08T14:45:25;1.63;;;1.00;;
9789;SDS011;4934;50.852;8.098;2023-01-08T14:47:59;1.05;;;0.70;;
9789;SDS011;4934;50.852;8.098;2023-01-08T14:50:33;1.17;;;0.60;;
9789;SDS011;4934;50.852;8.098;2023-01-08T14:53:05;1.27;;;0.50;;
9789;SDS011;4934;50.852;8.098;2023-01-08T14:55:35;3.38;;;1.20;;
9789;SDS011;4934;50.852;8.098;2023-01-08T14:58:07;1.20;;;0.73;;
9789;SDS011;4934;50.852;8.098;2023-01-08T15:00:39;1.10;;;0.80;;
9789;SDS011;4934;50.852;8.098;2023-01-08T15:03:04;1.63;;;0.63;;
9789;SDS011;4934;50.852;8.098;2023-01-08T15:05:31;0.68;;;0.50;;
9789;SDS011;4934;50.852;8.098;2023-01-08T15:08:33;0.80;;;0.60;;
9789;SDS011;4934;50.852;8.098;2023-01-08T15:11:03;0.90;;;0.60;;
9789;SDS011;4934;50.852;8.098;2023-01-08T15:13:30;5.03;;;1.00;;
9789;SDS011;4934;50.852;8.098;2023-01-08T15:18:25;1.95;;;0.80;;
9789;SDS011;4934;50.852;8.098;2023-01-08T15:20:52;2.15;;;0.73;;
9789;SDS011;4934;50.852;8.098;2023-01-08T15:23:25;2.33;;;1.00;;
9789;SDS011;4934;50.852;8.098;2023-01-08T15:25:59;1.80;;;1.00;;
9789;SDS011;4934;50.852;8.098;2023-01-08T15:28:24;9.90;;;3.28;;
9789;SDS011;4934;50.852;8.098;2023-01-08T15:30:51;1.85;;;0.93;;
9789;SDS011;4934;50.852;8.098;2023-01-08T15:33:19;2.03;;;0.60;;
9789;SDS011;4934;50.852;8.098;2023-01-08T15:35:46;0.88;;;0.70;;
9789;SDS011;4934;50.852;8.098;2023-01-08T15:38:13;1.35;;;0.70;;
9789;SDS011;4934;50.852;8.098;2023-01-08T15:40:39;1.33;;;0.95;;
9789;SDS011;4934;50.852;8.098;2023-01-08T15:43:09;2.60;;;0.90;;
9789;SDS011;4934;50.852;8.098;2023-01-08T15:45:46;1.75;;;0.70;;
9789;SDS011;4934;50.852;8.098;2023-01-08T15:48:14;4.78;;;2.17;;
9789;SDS011;4934;50.852;8.098;2023-01-08T15:50:41;7.13;;;2.28;;
9789;SDS011;4934;50.852;8.098;2023-01-08T15:53:11;10.02;;;3.38;;
9789;SDS011;4934;50.852;8.098;2023-01-08T15:55:43;5.75;;;2.17;;
9789;SDS011;4934;50.852;8.098;2023-01-08T15:58:11;8.05;;;2.30;;
9789;SDS011;4934;50.852;8.098;2023-01-08T16:00:37;4.75;;;2.10;;
9789;SDS011;4934;50.852;8.098;2023-01-08T16:03:04;4.47;;;1.40;;
9789;SDS011;4934;50.852;8.098;2023-01-08T16:05:31;2.13;;;1.23;;
9789;SDS011;4934;50.852;8.098;2023-01-08T16:07:57;4.40;;;0.95;;
9789;SDS011;4934;50.852;8.098;2023-01-08T16:10:23;2.72;;;1.15;;
9789;SDS011;4934;50.852;8.098;2023-01-08T16:12:49;2.03;;;1.02;;
9789;SDS011;4934;50.852;8.098;2023-01-08T16:15:15;2.67;;;1.17;;
9789;SDS011;4934;50.852;8.098;2023-01-08T16:17:43;3.08;;;1.02;;
9789;SDS011;4934;50.852;8.098;2023-01-08T16:20:09;1.52;;;0.75;;
9789;SDS011;4934;50.852;8.098;2023-01-08T16:22:36;3.70;;;1.70;;
9789;SDS011;4934;50.852;8.098;2023-01-08T16:25:04;2.20;;;0.90;;
9789;SDS011;4934;50.852;8.098;2023-01-08T16:27:31;3.40;;;1.00;;
9789;SDS011;4934;50.852;8.098;2023-01-08T16:29:59;2.42;;;0.95;;
9789;SDS011;4934;50.852;8.098;2023-01-08T16:32:24;3.20;;;0.80;;
9789;SDS011;4934;50.852;8.098;2023-01-08T16:34:50;1.60;;;1.00;;
9789;SDS011;4934;50.852;8.098;2023-01-08T16:37:22;2.97;;;1.05;;
9789;SDS011;4934;50.852;8.098;2023-01-08T16:39:48;1.75;;;1.10;;
9789;SDS011;4934;50.852;8.098;2023-01-08T16:42:13;4.35;;;2.22;;
9789;SDS011;4934;50.852;8.098;2023-01-08T16:44:52;3.03;;;1.40;;
9789;SDS011;4934;50.852;8.098;2023-01-08T16:47:18;4.55;;;1.30;;
9789;SDS011;4934;50.852;8.098;2023-01-08T16:49:43;2.30;;;1.17;;